sensor_id;sensor_type;location;lat;lon;timestamp;temperature;humidity
17948;DHT22;9099;47.958;11.366;2023-08-07T00:00:13;12.40;99.90
17948;DHT22;9099;47.958;11.366;2023-08-07T00:02:39;12.30;99.90
17948;DHT22;9099;47.958;11.366;2023-08-07T00:05:07;12.20;99.90
17948;DHT22;9099;47.958;11.366;2023-08-07T00:07:34;12.20;99.90
17948;DHT22;9099;47.958;11.366;2023-08-07T00:10:02;12.10;99.90
17948;DHT22;9099;47.958;11.366;2023-08-07T00:12:29;12.10;99.90
17948;DHT22;9099;47.958;11.366;2023-08-07T00:14:56;12.10;99.90
17948;DHT22;9099;47.958;11.366;2023-08-07T00:17:23;12.00;99.90
17948;DHT22;9099;47.958;11.366;2023-08-07T00:19:50;11.90;99.90
17948;DHT22;9099;47.958;11.366;2023-08-07T00:22:17;11.90;99.90
17948;DHT22;9099;47.958;11.366;2023-08-07T00:24:44;11.80;99.90
17948;DHT22;9099;47.958;11.366;2023-08-07T00:27:12;11.80;99.90
17948;DHT22;9099;47.958;11.366;2023-08-07T00:29:39;11.80;99.90
17948;DHT22;9099;47.958;11.366;2023-08-07T00:32:07;11.80;99.90
17948;DHT22;9099;47.958;11.366;2023-08-07T00:34:34;11.80;99.90
17948;DHT22;9099;47.958;11.366;2023-08-07T00:37:01;11.80;99.90
17948;DHT22;9099;47.958;11.366;2023-08-07T00:39:27;11.70;99.90
17948;DHT22;9099;47.958;11.366;2023-08-07T00:41:54;11.60;99.90
17948;DHT22;9099;47.958;11.366;2023-08-07T00:44:22;11.60;99.90
17948;DHT22;9099;47.958;11.366;2023-08-07T00:46:50;11.60;99.90
17948;DHT22;9099;47.958;11.366;2023-08-07T00:49:17;11.60;99.90
17948;DHT22;9099;47.958;11.366;2023-08-07T00:51:45;11.50;99.90
17948;DHT22;9099;47.958;11.366;2023-08-07T00:54:15;11.50;99.90
17948;DHT22;9099;47.958;11.366;2023-08-07T00:56:43;11.50;99.90
17948;DHT22;9099;47.958;11.366;2023-08-07T00:59:10;11.50;99.90
17948;DHT22;9099;47.958;11.366;2023-08-07T01:01:38;11.40;99.90
17948;DHT22;9099;47.958;11.366;2023-08-07T01:04:05;11.40;99.90
17948;DHT22;9099;47.958;11.366;2023-08-07T01:06:32;11.40;99.90
17948;DHT22;9099;47.958;11.366;2023-08-07T01:08:59;11.40;99.90
17948;DHT22;9099;47.958;11.366;2023-08-07T01:11:34;11.40;99.90
17948;DHT22;9099;47.958;11.366;2023-08-07T01:14:08;11.40;99.90
17948;DHT22;9099;47.958;11.366;2023-08-07T01:16:44;11.40;99.90
17948;DHT22;9099;47.958;11.366;2023-08-07T01:19:19;11.40;99.90
17948;DHT22;9099;47.958;11.366;2023-08-07T01:21:49;11.40;99.90
17948;DHT22;9099;47.958;11.366;2023-08-07T01:24:15;11.40;99.90
17948;DHT22;9099;47.958;11.366;2023-08-07T01:26:43;11.40;99.90
17948;DHT22;9099;47.958;11.366;2023-08-07T01:29:14;11.40;99.90
17948;DHT22;9099;47.958;11.366;2023-08-07T01:31:44;11.30;99.90
17948;DHT22;9099;47.958;11.366;2023-08-07T01:34:14;11.40;99.90
17948;DHT22;9099;47.958;11.366;2023-08-07T01:36:45;11.40;99.90
17948;DHT22;9099;47.958;11.366;2023-08-07T01:39:15;11.30;99.90
17948;DHT22;9099;47.958;11.366;2023-08-07T01:41:42;11.30;99.90
17948;DHT22;9099;47.958;11.366;2023-08-07T01:44:09;11.30;99.90
17948;DHT22;9099;47.958;11.366;2023-08-07T01:46:36;11.30;99.90
17948;DHT22;9099;47.958;11.366;2023-08-07T01:49:03;11.20;99.90
17948;DHT22;9099;47.958;11.366;2023-08-07T01:51:30;11.30;99.90
17948;DHT22;9099;47.958;11.366;2023-08-07T01:53:57;11.20;99.90
17948;DHT22;9099;47.958;11.366;2023-08-07T01:56:25;11.20;99.90
17948;DHT22;9099;47.958;11.366;2023-08-07T01:58:52;11.30;99.90
17948;DHT22;9099;47.958;11.366;2023-08-07T02:01:19;11.20;99.90
17948;DHT22;9099;47.958;11.366;2023-08-07T02:03:45;11.30;99.90
17948;DHT22;9099;47.958;11.366;2023-08-07T02:06:12;11.30;99.90
17948;DHT22;9099;47.958;11.366;2023-08-07T02:08:39;11.20;99.90
17948;DHT22;9099;47.958;11.366;2023-08-07T02:11:06;11.20;99.90
17948;DHT22;9099;47.958;11.366;2023-08-07T02:13:34;11.20;99.90
17948;DHT22;9099;47.958;11.366;2023-08-07T02:16:01;11.20;99.90
17948;DHT22;9099;47.958;11.366;2023-08-07T02:18:28;11.30;99.90
17948;DHT22;9099;47.958;11.366;2023-08-07T02:20:55;11.30;99.90
17948;DHT22;9099;47.958;11.366;2023-08-07T02:23:22;11.30;99.90
17948;DHT22;9099;47.958;11.366;2023-08-07T02:25:49;11.30;99.90
17948;DHT22;9099;47.958;11.366;2023-08-07T02:28:16;11.30;99.90
17948;DHT22;9099;47.958;11.366;2023-08-07T02:30:46;11.40;99.90
17948;DHT22;9099;47.958;11.366;2023-08-07T02:33:14;11.40;99.90
17948;DHT22;9099;47.958;11.366;2023-08-07T02:35:41;11.40;99.90
17948;DHT22;9099;47.958;11.366;2023-08-07T02:38:07;11.40;99.90
17948;DHT22;9099;47.958;11.366;2023-08-07T02:40:35;11.40;99.90
17948;DHT22;9099;47.958;11.366;2023-08-07T02:43:02;11.30;99.90
17948;DHT22;9099;47.958;11.366;2023-08-07T02:45:29;11.40;99.90
17948;DHT22;9099;47.958;11.366;2023-08-07T02:47:57;11.40;99.90
17948;DHT22;9099;47.958;11.366;2023-08-07T02:50:24;11.40;99.90
17948;DHT22;9099;47.958;11.366;2023-08-07T02:52:53;11.30;99.90
17948;DHT22;9099;47.958;11.366;2023-08-07T02:55:19;11.40;99.90
17948;DHT22;9099;47.958;11.366;2023-08-07T02:57:46;11.40;99.90
17948;DHT22;9099;47.958;11.366;2023-08-07T03:00:14;11.40;99.90
17948;DHT22;9099;47.958;11.366;2023-08-07T03:02:40;11.40;99.90
17948;DHT22;9099;47.958;11.366;2023-08-07T03:05:11;11.40;99.90
17948;DHT22;9099;47.958;11.366;2023-08-07T03:07:37;11.40;99.90
17948;DHT22;9099;47.958;11.366;2023-08-07T03:10:05;11.40;99.90
17948;DHT22;9099;47.958;11.366;2023-08-07T03:12:32;11.50;99.90
17948;DHT22;9099;47.958;11.366;2023-08-07T03:14:59;11.50;99.90
17948;DHT22;9099;47.958;11.366;2023-08-07T03:17:26;11.50;99.90
17948;DHT22;9099;47.958;11.366;2023-08-07T03:19:53;11.50;99.90
17948;DHT22;9099;47.958;11.366;2023-08-07T03:22:21;11.60;99.90
17948;DHT22;9099;47.958;11.366;2023-08-07T03:24:48;11.60;99.90
17948;DHT22;9099;47.958;11.366;2023-08-07T03:27:15;11.60;99.90
17948;DHT22;9099;47.958;11.366;2023-08-07T03:29:43;11.60;99.90
17948;DHT22;9099;47.958;11.366;2023-08-07T03:32:10;11.70;99.90
17948;DHT22;9099;47.958;11.366;2023-08-07T03:34:36;11.70;99.90
17948;DHT22;9099;47.958;11.366;2023-08-07T03:37:04;11.60;99.90
17948;DHT22;9099;47.958;11.366;2023-08-07T03:39:32;11.60;99.90
17948;DHT22;9099;47.958;11.366;2023-08-07T03:41:59;11.70;99.90
17948;DHT22;9099;47.958;11.366;2023-08-07T03:44:26;11.70;99.90
17948;DHT22;9099;47.958;11.366;2023-08-07T03:46:53;11.80;99.90
17948;DHT22;9099;47.958;11.366;2023-08-07T03:49:21;11.70;99.90
17948;DHT22;9099;47.958;11.366;2023-08-07T03:51:49;11.80;99.90
17948;DHT22;9099;47.958;11.366;2023-08-07T03:54:16;11.70;99.90
17948;DHT22;9099;47.958;11.366;2023-08-07T03:56:44;11.80;99.90
17948;DHT22;9099;47.958;11.366;2023-08-07T03:59:12;11.80;99.90
17948;DHT22;9099;47.958;11.366;2023-08-07T04:01:39;11.80;99.90
17948;DHT22;9099;47.958;11.366;2023-08-07T04:04:06;11.80;99.90
17948;DHT22;9099;47.958;11.366;2023-08-07T04:06:32;11.90;99.90
17948;DHT22;9099;47.958;11.366;2023-08-07T04:08:59;11.90;99.90
17948;DHT22;9099;47.958;11.366;2023-08-07T04:11:26;11.90;99.90
17948;DHT22;9099;47.958;11.366;2023-08-07T04:13:54;12.00;99.90
17948;DHT22;9099;47.958;11.366;2023-08-07T04:16:21;12.00;99.90
17948;DHT22;9099;47.958;11.366;2023-08-07T04:18:48;11.90;99.90
17948;DHT22;9099;47.958;11.366;2023-08-07T04:21:15;11.90;99.90
17948;DHT22;9099;47.958;11.366;2023-08-07T04:23:42;12.00;99.90
17948;DHT22;9099;47.958;11.366;2023-08-07T04:26:09;12.00;99.90
17948;DHT22;9099;47.958;11.366;2023-08-07T04:28:36;12.00;99.90
17948;DHT22;9099;47.958;11.366;2023-08-07T04:31:04;12.00;99.90
17948;DHT22;9099;47.958;11.366;2023-08-07T04:33:31;12.00;99.90
17948;DHT22;9099;47.958;11.366;2023-08-07T04:35:57;12.00;99.90
17948;DHT22;9099;47.958;11.366;2023-08-07T04:38:24;12.00;99.90
17948;DHT22;9099;47.958;11.366;2023-08-07T04:40:51;12.00;99.90
17948;DHT22;9099;47.958;11.366;2023-08-07T04:43:19;12.00;99.90
17948;DHT22;9099;47.958;11.366;2023-08-07T04:45:46;12.00;99.90
17948;DHT22;9099;47.958;11.366;2023-08-07T04:48:15;12.00;99.90
17948;DHT22;9099;47.958;11.366;2023-08-07T04:50:43;12.10;99.90
17948;DHT22;9099;47.958;11.366;2023-08-07T04:53:10;12.00;99.90
17948;DHT22;9099;47.958;11.366;2023-08-07T04:55:38;12.10;99.90
17948;DHT22;9099;47.958;11.366;2023-08-07T04:58:05;12.10;99.90
17948;DHT22;9099;47.958;11.366;2023-08-07T05:00:31;12.00;99.90
17948;DHT22;9099;47.958;11.366;2023-08-07T05:02:58;12.00;99.90
17948;DHT22;9099;47.958;11.366;2023-08-07T05:05:28;12.10;99.90
17948;DHT22;9099;47.958;11.366;2023-08-07T05:07:55;12.10;99.90
17948;DHT22;9099;47.958;11.366;2023-08-07T05:10:23;12.10;99.90
17948;DHT22;9099;47.958;11.366;2023-08-07T05:12:50;12.00;99.90
17948;DHT22;9099;47.958;11.366;2023-08-07T05:15:20;12.10;99.90
17948;DHT22;9099;47.958;11.366;2023-08-07T05:17:47;12.10;99.90
17948;DHT22;9099;47.958;11.366;2023-08-07T05:20:14;12.10;99.90
17948;DHT22;9099;47.958;11.366;2023-08-07T05:22:42;12.10;99.90
17948;DHT22;9099;47.958;11.366;2023-08-07T05:25:09;12.10;99.90
17948;DHT22;9099;47.958;11.366;2023-08-07T05:27:38;12.10;99.90
17948;DHT22;9099;47.958;11.366;2023-08-07T05:30:06;12.10;99.90
17948;DHT22;9099;47.958;11.366;2023-08-07T05:32:33;12.10;99.90
17948;DHT22;9099;47.958;11.366;2023-08-07T05:35:03;12.10;99.90
17948;DHT22;9099;47.958;11.366;2023-08-07T05:37:40;12.10;99.90
17948;DHT22;9099;47.958;11.366;2023-08-07T05:40:10;12.20;99.90
17948;DHT22;9099;47.958;11.366;2023-08-07T05:42:38;12.30;99.90
17948;DHT22;9099;47.958;11.366;2023-08-07T05:45:07;12.30;99.90
17948;DHT22;9099;47.958;11.366;2023-08-07T05:47:34;12.50;99.90
17948;DHT22;9099;47.958;11.366;2023-08-07T05:50:02;12.50;99.90
17948;DHT22;9099;47.958;11.366;2023-08-07T05:52:29;12.60;99.90
17948;DHT22;9099;47.958;11.366;2023-08-07T05:54:58;12.70;99.90
17948;DHT22;9099;47.958;11.366;2023-08-07T05:57:32;12.80;99.90
17948;DHT22;9099;47.958;11.366;2023-08-07T06:00:07;12.80;99.90
17948;DHT22;9099;47.958;11.366;2023-08-07T06:02:39;12.80;99.90
17948;DHT22;9099;47.958;11.366;2023-08-07T06:05:06;13.10;99.90
17948;DHT22;9099;47.958;11.366;2023-08-07T06:07:37;13.20;99.90
17948;DHT22;9099;47.958;11.366;2023-08-07T06:10:06;13.10;99.90
17948;DHT22;9099;47.958;11.366;2023-08-07T06:12:38;13.00;99.90
17948;DHT22;9099;47.958;11.366;2023-08-07T06:15:05;13.10;99.90
17948;DHT22;9099;47.958;11.366;2023-08-07T06:17:32;13.30;99.90
17948;DHT22;9099;47.958;11.366;2023-08-07T06:19:59;13.70;99.90
17948;DHT22;9099;47.958;11.366;2023-08-07T06:22:26;14.20;99.90
17948;DHT22;9099;47.958;11.366;2023-08-07T06:24:53;14.60;99.90
17948;DHT22;9099;47.958;11.366;2023-08-07T06:27:21;14.80;99.90
17948;DHT22;9099;47.958;11.366;2023-08-07T06:29:49;14.80;99.90
17948;DHT22;9099;47.958;11.366;2023-08-07T06:32:16;14.30;99.90
17948;DHT22;9099;47.958;11.366;2023-08-07T06:34:43;14.20;99.90
17948;DHT22;9099;47.958;11.366;2023-08-07T06:37:12;14.20;99.90
17948;DHT22;9099;47.958;11.366;2023-08-07T06:39:39;14.20;99.90
17948;DHT22;9099;47.958;11.366;2023-08-07T06:42:06;14.10;99.90
17948;DHT22;9099;47.958;11.366;2023-08-07T06:44:33;14.10;99.90
17948;DHT22;9099;47.958;11.366;2023-08-07T06:47:01;14.20;99.90
17948;DHT22;9099;47.958;11.366;2023-08-07T06:49:28;14.10;99.90
17948;DHT22;9099;47.958;11.366;2023-08-07T06:51:57;14.00;99.90
17948;DHT22;9099;47.958;11.366;2023-08-07T06:54:24;13.90;99.90
17948;DHT22;9099;47.958;11.366;2023-08-07T06:56:50;14.10;99.90
17948;DHT22;9099;47.958;11.366;2023-08-07T06:59:17;14.30;99.90
17948;DHT22;9099;47.958;11.366;2023-08-07T07:01:44;14.30;99.90
17948;DHT22;9099;47.958;11.366;2023-08-07T07:04:13;14.40;99.90
17948;DHT22;9099;47.958;11.366;2023-08-07T07:06:40;14.50;99.90
17948;DHT22;9099;47.958;11.366;2023-08-07T07:09:06;14.40;99.90
17948;DHT22;9099;47.958;11.366;2023-08-07T07:11:33;14.50;99.90
17948;DHT22;9099;47.958;11.366;2023-08-07T07:14:00;14.50;99.90
17948;DHT22;9099;47.958;11.366;2023-08-07T07:16:27;14.50;99.90
17948;DHT22;9099;47.958;11.366;2023-08-07T07:18:54;14.30;99.90
17948;DHT22;9099;47.958;11.366;2023-08-07T07:21:25;14.20;99.90
17948;DHT22;9099;47.958;11.366;2023-08-07T07:23:52;14.30;99.90
17948;DHT22;9099;47.958;11.366;2023-08-07T07:26:18;14.40;99.90
17948;DHT22;9099;47.958;11.366;2023-08-07T07:28:45;14.40;99.90
17948;DHT22;9099;47.958;11.366;2023-08-07T07:31:12;14.40;99.90
17948;DHT22;9099;47.958;11.366;2023-08-07T07:33:39;14.40;99.90
17948;DHT22;9099;47.958;11.366;2023-08-07T07:36:06;14.30;99.90
17948;DHT22;9099;47.958;11.366;2023-08-07T07:38:34;14.20;99.90
17948;DHT22;9099;47.958;11.366;2023-08-07T07:41:01;14.20;99.90
17948;DHT22;9099;47.958;11.366;2023-08-07T07:43:28;14.20;99.90
17948;DHT22;9099;47.958;11.366;2023-08-07T07:45:57;14.20;99.90
17948;DHT22;9099;47.958;11.366;2023-08-07T07:48:24;14.30;99.90
17948;DHT22;9099;47.958;11.366;2023-08-07T07:50:50;14.30;99.90
17948;DHT22;9099;47.958;11.366;2023-08-07T07:53:19;14.30;99.90
17948;DHT22;9099;47.958;11.366;2023-08-07T07:55:48;14.40;99.90
17948;DHT22;9099;47.958;11.366;2023-08-07T07:58:15;14.50;99.90
17948;DHT22;9099;47.958;11.366;2023-08-07T08:00:42;14.60;99.90
17948;DHT22;9099;47.958;11.366;2023-08-07T08:03:09;14.70;99.90
17948;DHT22;9099;47.958;11.366;2023-08-07T08:05:35;14.70;99.90
17948;DHT22;9099;47.958;11.366;2023-08-07T08:08:03;14.80;99.90
17948;DHT22;9099;47.958;11.366;2023-08-07T08:10:30;14.80;99.90
17948;DHT22;9099;47.958;11.366;2023-08-07T08:12:58;14.80;99.90
17948;DHT22;9099;47.958;11.366;2023-08-07T08:15:25;15.00;99.90
17948;DHT22;9099;47.958;11.366;2023-08-07T08:17:52;15.10;99.90
17948;DHT22;9099;47.958;11.366;2023-08-07T08:20:19;15.20;99.90
17948;DHT22;9099;47.958;11.366;2023-08-07T08:22:46;15.20;99.90
17948;DHT22;9099;47.958;11.366;2023-08-07T08:25:13;15.20;99.90
17948;DHT22;9099;47.958;11.366;2023-08-07T08:27:40;15.20;99.90
17948;DHT22;9099;47.958;11.366;2023-08-07T08:30:09;15.20;99.90
17948;DHT22;9099;47.958;11.366;2023-08-07T08:32:38;15.10;99.90
17948;DHT22;9099;47.958;11.366;2023-08-07T08:35:05;15.10;99.90
17948;DHT22;9099;47.958;11.366;2023-08-07T08:37:32;15.20;99.90
17948;DHT22;9099;47.958;11.366;2023-08-07T08:39:59;15.20;99.90
17948;DHT22;9099;47.958;11.366;2023-08-07T08:42:26;15.10;99.90
17948;DHT22;9099;47.958;11.366;2023-08-07T08:44:55;15.00;99.90
17948;DHT22;9099;47.958;11.366;2023-08-07T08:47:25;15.00;99.90
17948;DHT22;9099;47.958;11.366;2023-08-07T08:49:57;15.20;99.90
17948;DHT22;9099;47.958;11.366;2023-08-07T08:52:26;15.40;99.90
17948;DHT22;9099;47.958;11.366;2023-08-07T08:54:54;15.70;99.90
17948;DHT22;9099;47.958;11.366;2023-08-07T08:57:21;15.60;99.90
17948;DHT22;9099;47.958;11.366;2023-08-07T08:59:50;15.50;99.90
17948;DHT22;9099;47.958;11.366;2023-08-07T09:02:17;15.40;99.90
17948;DHT22;9099;47.958;11.366;2023-08-07T09:07:15;15.30;99.90
17948;DHT22;9099;47.958;11.366;2023-08-07T09:09:44;15.20;99.90
17948;DHT22;9099;47.958;11.366;2023-08-07T09:12:16;15.00;99.90
17948;DHT22;9099;47.958;11.366;2023-08-07T09:14:44;14.70;99.90
17948;DHT22;9099;47.958;11.366;2023-08-07T09:17:15;14.60;99.90
17948;DHT22;9099;47.958;11.366;2023-08-07T09:19:43;14.60;99.90
17948;DHT22;9099;47.958;11.366;2023-08-07T09:22:10;14.50;99.90
17948;DHT22;9099;47.958;11.366;2023-08-07T09:24:38;14.40;99.90
17948;DHT22;9099;47.958;11.366;2023-08-07T09:27:07;14.30;99.90
17948;DHT22;9099;47.958;11.366;2023-08-07T09:29:33;14.30;99.90
17948;DHT22;9099;47.958;11.366;2023-08-07T09:32:06;14.30;99.90
17948;DHT22;9099;47.958;11.366;2023-08-07T09:34:34;14.40;99.90
17948;DHT22;9099;47.958;11.366;2023-08-07T09:37:01;14.40;99.90
17948;DHT22;9099;47.958;11.366;2023-08-07T09:39:30;14.40;99.90
17948;DHT22;9099;47.958;11.366;2023-08-07T09:41:58;14.50;99.90
17948;DHT22;9099;47.958;11.366;2023-08-07T09:44:25;14.50;99.90
17948;DHT22;9099;47.958;11.366;2023-08-07T09:46:52;14.60;99.90
17948;DHT22;9099;47.958;11.366;2023-08-07T09:49:18;14.50;99.90
17948;DHT22;9099;47.958;11.366;2023-08-07T09:51:47;14.50;99.90
17948;DHT22;9099;47.958;11.366;2023-08-07T09:54:16;14.60;99.90
17948;DHT22;9099;47.958;11.366;2023-08-07T09:56:43;14.60;99.90
17948;DHT22;9099;47.958;11.366;2023-08-07T09:59:13;14.50;99.90
17948;DHT22;9099;47.958;11.366;2023-08-07T10:01:40;14.50;99.90
17948;DHT22;9099;47.958;11.366;2023-08-07T10:04:09;14.50;99.90
17948;DHT22;9099;47.958;11.366;2023-08-07T10:06:41;14.40;99.90
17948;DHT22;9099;47.958;11.366;2023-08-07T10:09:08;14.50;99.90
17948;DHT22;9099;47.958;11.366;2023-08-07T10:11:37;14.60;99.90
17948;DHT22;9099;47.958;11.366;2023-08-07T10:14:05;15.00;99.90
17948;DHT22;9099;47.958;11.366;2023-08-07T10:16:33;15.50;99.90
17948;DHT22;9099;47.958;11.366;2023-08-07T10:19:04;16.20;99.90
17948;DHT22;9099;47.958;11.366;2023-08-07T10:21:46;17.20;99.90
17948;DHT22;9099;47.958;11.366;2023-08-07T10:24:16;18.00;99.90
17948;DHT22;9099;47.958;11.366;2023-08-07T10:26:44;18.60;99.90
17948;DHT22;9099;47.958;11.366;2023-08-07T10:29:15;18.70;99.90
17948;DHT22;9099;47.958;11.366;2023-08-07T10:31:46;18.60;99.90
17948;DHT22;9099;47.958;11.366;2023-08-07T10:34:13;18.60;99.90
17948;DHT22;9099;47.958;11.366;2023-08-07T10:36:40;18.90;99.90
17948;DHT22;9099;47.958;11.366;2023-08-07T10:39:08;19.00;99.90
17948;DHT22;9099;47.958;11.366;2023-08-07T10:41:39;19.00;99.90
17948;DHT22;9099;47.958;11.366;2023-08-07T10:44:17;18.80;99.90
17948;DHT22;9099;47.958;11.366;2023-08-07T10:46:49;18.70;99.90
17948;DHT22;9099;47.958;11.366;2023-08-07T10:49:37;18.30;99.90
17948;DHT22;9099;47.958;11.366;2023-08-07T10:52:12;17.80;99.90
17948;DHT22;9099;47.958;11.366;2023-08-07T10:54:41;17.40;99.90
17948;DHT22;9099;47.958;11.366;2023-08-07T10:57:12;17.10;99.90
17948;DHT22;9099;47.958;11.366;2023-08-07T10:59:44;17.10;99.90
17948;DHT22;9099;47.958;11.366;2023-08-07T11:02:23;17.80;99.90
17948;DHT22;9099;47.958;11.366;2023-08-07T11:04:52;18.50;99.90
17948;DHT22;9099;47.958;11.366;2023-08-07T11:07:24;19.30;99.90
17948;DHT22;9099;47.958;11.366;2023-08-07T11:09:51;19.80;99.90
17948;DHT22;9099;47.958;11.366;2023-08-07T11:12:18;20.10;99.90
17948;DHT22;9099;47.958;11.366;2023-08-07T11:14:45;20.40;99.90
17948;DHT22;9099;47.958;11.366;2023-08-07T11:17:14;19.80;99.90
17948;DHT22;9099;47.958;11.366;2023-08-07T11:19:41;19.60;99.90
17948;DHT22;9099;47.958;11.366;2023-08-07T11:22:08;19.90;99.90
17948;DHT22;9099;47.958;11.366;2023-08-07T11:24:35;19.90;99.90
17948;DHT22;9099;47.958;11.366;2023-08-07T11:27:02;19.20;99.90
17948;DHT22;9099;47.958;11.366;2023-08-07T11:29:29;19.30;99.90
17948;DHT22;9099;47.958;11.366;2023-08-07T11:31:56;19.30;99.90
17948;DHT22;9099;47.958;11.366;2023-08-07T11:34:24;19.30;99.90
17948;DHT22;9099;47.958;11.366;2023-08-07T11:36:51;19.60;99.90
17948;DHT22;9099;47.958;11.366;2023-08-07T11:39:20;19.90;99.90
17948;DHT22;9099;47.958;11.366;2023-08-07T11:41:49;20.10;99.90
17948;DHT22;9099;47.958;11.366;2023-08-07T11:44:18;20.00;99.90
17948;DHT22;9099;47.958;11.366;2023-08-07T11:46:44;20.20;99.90
17948;DHT22;9099;47.958;11.366;2023-08-07T11:49:12;20.40;99.90
17948;DHT22;9099;47.958;11.366;2023-08-07T11:51:40;20.60;99.90
17948;DHT22;9099;47.958;11.366;2023-08-07T11:54:13;20.70;99.90
17948;DHT22;9099;47.958;11.366;2023-08-07T11:56:41;20.80;99.90
17948;DHT22;9099;47.958;11.366;2023-08-07T11:59:08;20.80;99.90
17948;DHT22;9099;47.958;11.366;2023-08-07T12:01:38;20.70;99.90
17948;DHT22;9099;47.958;11.366;2023-08-07T12:04:10;20.50;99.90
17948;DHT22;9099;47.958;11.366;2023-08-07T12:06:37;20.00;99.90
17948;DHT22;9099;47.958;11.366;2023-08-07T12:09:07;19.90;99.90
17948;DHT22;9099;47.958;11.366;2023-08-07T12:11:38;19.80;99.90
17948;DHT22;9099;47.958;11.366;2023-08-07T12:14:05;20.30;99.90
17948;DHT22;9099;47.958;11.366;2023-08-07T12:16:33;20.60;99.90
17948;DHT22;9099;47.958;11.366;2023-08-07T12:19:00;20.40;99.90
17948;DHT22;9099;47.958;11.366;2023-08-07T12:21:29;20.00;99.90
17948;DHT22;9099;47.958;11.366;2023-08-07T12:23:59;19.80;99.90
17948;DHT22;9099;47.958;11.366;2023-08-07T12:26:27;19.50;99.90
17948;DHT22;9099;47.958;11.366;2023-08-07T12:28:54;19.20;99.90
17948;DHT22;9099;47.958;11.366;2023-08-07T12:31:21;18.90;99.90
17948;DHT22;9099;47.958;11.366;2023-08-07T12:33:48;18.60;99.90
17948;DHT22;9099;47.958;11.366;2023-08-07T12:36:15;18.40;99.90
17948;DHT22;9099;47.958;11.366;2023-08-07T12:38:42;18.10;99.90
17948;DHT22;9099;47.958;11.366;2023-08-07T12:41:08;17.70;99.90
17948;DHT22;9099;47.958;11.366;2023-08-07T12:43:37;17.50;99.90
17948;DHT22;9099;47.958;11.366;2023-08-07T12:46:03;17.20;99.90
17948;DHT22;9099;47.958;11.366;2023-08-07T12:48:30;17.00;99.90
17948;DHT22;9099;47.958;11.366;2023-08-07T12:50:57;16.90;99.90
17948;DHT22;9099;47.958;11.366;2023-08-07T12:53:24;16.70;99.90
17948;DHT22;9099;47.958;11.366;2023-08-07T12:55:51;16.50;99.90
17948;DHT22;9099;47.958;11.366;2023-08-07T12:58:17;16.40;99.90
17948;DHT22;9099;47.958;11.366;2023-08-07T13:00:49;16.30;99.90
17948;DHT22;9099;47.958;11.366;2023-08-07T13:03:17;16.20;99.90
17948;DHT22;9099;47.958;11.366;2023-08-07T13:05:45;16.00;99.90
17948;DHT22;9099;47.958;11.366;2023-08-07T13:08:12;15.70;99.90
17948;DHT22;9099;47.958;11.366;2023-08-07T13:10:39;15.50;99.90
17948;DHT22;9099;47.958;11.366;2023-08-07T13:13:06;15.30;99.90
17948;DHT22;9099;47.958;11.366;2023-08-07T13:15:33;15.10;99.90
17948;DHT22;9099;47.958;11.366;2023-08-07T13:18:01;15.00;99.90
17948;DHT22;9099;47.958;11.366;2023-08-07T13:20:28;14.80;99.90
17948;DHT22;9099;47.958;11.366;2023-08-07T13:22:59;14.80;99.90
17948;DHT22;9099;47.958;11.366;2023-08-07T13:25:26;14.90;99.90
17948;DHT22;9099;47.958;11.366;2023-08-07T13:27:53;15.10;99.90
17948;DHT22;9099;47.958;11.366;2023-08-07T13:30:20;15.40;99.90
17948;DHT22;9099;47.958;11.366;2023-08-07T13:32:47;15.80;99.90
17948;DHT22;9099;47.958;11.366;2023-08-07T13:35:15;15.90;99.90
17948;DHT22;9099;47.958;11.366;2023-08-07T13:37:42;15.90;99.90
17948;DHT22;9099;47.958;11.366;2023-08-07T13:40:09;15.80;99.90
17948;DHT22;9099;47.958;11.366;2023-08-07T13:42:39;15.80;99.90
17948;DHT22;9099;47.958;11.366;2023-08-07T13:45:07;15.70;99.90
17948;DHT22;9099;47.958;11.366;2023-08-07T13:47:35;15.60;99.90
17948;DHT22;9099;47.958;11.366;2023-08-07T13:50:07;15.60;99.90
17948;DHT22;9099;47.958;11.366;2023-08-07T13:52:39;15.40;99.90
17948;DHT22;9099;47.958;11.366;2023-08-07T13:55:07;15.10;99.90
17948;DHT22;9099;47.958;11.366;2023-08-07T13:57:34;14.90;99.90
17948;DHT22;9099;47.958;11.366;2023-08-07T14:00:01;14.90;99.90
17948;DHT22;9099;47.958;11.366;2023-08-07T14:02:29;14.90;99.90
17948;DHT22;9099;47.958;11.366;2023-08-07T14:04:57;14.80;99.90
17948;DHT22;9099;47.958;11.366;2023-08-07T14:07:24;14.80;99.90
17948;DHT22;9099;47.958;11.366;2023-08-07T14:09:52;14.70;99.90
17948;DHT22;9099;47.958;11.366;2023-08-07T14:12:19;14.80;99.90
17948;DHT22;9099;47.958;11.366;2023-08-07T14:14:46;14.90;99.90
17948;DHT22;9099;47.958;11.366;2023-08-07T14:17:13;15.00;99.90
17948;DHT22;9099;47.958;11.366;2023-08-07T14:19:40;14.90;99.90
17948;DHT22;9099;47.958;11.366;2023-08-07T14:22:08;14.90;99.90
17948;DHT22;9099;47.958;11.366;2023-08-07T14:24:35;14.90;99.90
17948;DHT22;9099;47.958;11.366;2023-08-07T14:27:04;15.00;99.90
17948;DHT22;9099;47.958;11.366;2023-08-07T14:29:31;15.50;99.90
17948;DHT22;9099;47.958;11.366;2023-08-07T14:31:59;15.80;99.90
17948;DHT22;9099;47.958;11.366;2023-08-07T14:34:26;16.00;99.90
17948;DHT22;9099;47.958;11.366;2023-08-07T14:36:52;16.00;99.90
17948;DHT22;9099;47.958;11.366;2023-08-07T14:39:20;16.10;99.90
17948;DHT22;9099;47.958;11.366;2023-08-07T14:41:47;16.10;99.90
17948;DHT22;9099;47.958;11.366;2023-08-07T14:44:18;15.90;99.90
17948;DHT22;9099;47.958;11.366;2023-08-07T14:46:45;15.80;99.90
17948;DHT22;9099;47.958;11.366;2023-08-07T14:49:12;15.60;99.90
17948;DHT22;9099;47.958;11.366;2023-08-07T14:51:39;15.40;99.90
17948;DHT22;9099;47.958;11.366;2023-08-07T14:54:06;15.20;99.90
17948;DHT22;9099;47.958;11.366;2023-08-07T14:56:32;15.10;99.90
17948;DHT22;9099;47.958;11.366;2023-08-07T14:58:59;15.00;99.90
17948;DHT22;9099;47.958;11.366;2023-08-07T15:01:27;14.90;99.90
17948;DHT22;9099;47.958;11.366;2023-08-07T15:03:54;14.80;99.90
17948;DHT22;9099;47.958;11.366;2023-08-07T15:06:21;14.60;99.90
17948;DHT22;9099;47.958;11.366;2023-08-07T15:08:48;14.50;99.90
17948;DHT22;9099;47.958;11.366;2023-08-07T15:11:15;14.40;99.90
17948;DHT22;9099;47.958;11.366;2023-08-07T15:13:42;14.50;99.90
17948;DHT22;9099;47.958;11.366;2023-08-07T15:16:09;14.60;99.90
17948;DHT22;9099;47.958;11.366;2023-08-07T15:18:37;14.50;99.90
17948;DHT22;9099;47.958;11.366;2023-08-07T15:21:04;14.50;99.90
17948;DHT22;9099;47.958;11.366;2023-08-07T15:23:31;14.30;99.90
17948;DHT22;9099;47.958;11.366;2023-08-07T15:25:58;14.20;99.90
17948;DHT22;9099;47.958;11.366;2023-08-07T15:28:25;14.10;99.90
17948;DHT22;9099;47.958;11.366;2023-08-07T15:30:52;14.10;99.90
17948;DHT22;9099;47.958;11.366;2023-08-07T15:33:19;14.10;99.90
17948;DHT22;9099;47.958;11.366;2023-08-07T15:35:48;14.30;99.90